createdAt,value
2024-01-03T00:00:07.578Z,0.00
2024-01-03T00:01:07.579Z,0.00
2024-01-03T00:02:07.521Z,0.00
2024-01-03T00:03:07.519Z,0.00
2024-01-03T00:04:07.621Z,0.00
2024-01-03T00:05:07.440Z,0.00
2024-01-03T00:06:07.524Z,0.00
2024-01-03T00:07:07.393Z,0.00
2024-01-03T00:08:07.698Z,0.00
2024-01-03T00:09:07.351Z,0.00
2024-01-03T00:10:07.310Z,0.00
2024-01-03T00:11:07.282Z,0.00
2024-01-03T00:12:07.314Z,0.00
2024-01-03T00:13:07.257Z,0.00
2024-01-03T00:14:07.233Z,0.00
2024-01-03T00:15:07.181Z,0.00
2024-01-03T00:16:07.165Z,0.00
2024-01-03T00:17:07.136Z,0.00
2024-01-03T00:18:07.321Z,0.00
2024-01-03T00:19:07.174Z,0.00
2024-01-03T00:20:07.055Z,0.00
2024-01-03T00:21:07.079Z,0.00
2024-01-03T00:22:07.000Z,0.00
2024-01-03T00:23:06.976Z,0.00
2024-01-03T00:24:06.961Z,0.00
2024-01-03T00:25:06.927Z,0.00
2024-01-03T00:26:06.904Z,0.00
2024-01-03T00:27:06.939Z,0.00
2024-01-03T00:28:07.032Z,0.00
2024-01-03T00:29:06.848Z,0.00
2024-01-03T00:30:06.842Z,0.00
2024-01-03T00:31:06.789Z,0.00
2024-01-03T00:32:06.760Z,0.00
2024-01-03T00:33:06.905Z,0.00
2024-01-03T00:34:06.838Z,0.00
2024-01-03T00:35:06.763Z,0.00
2024-01-03T00:36:06.674Z,0.00
2024-01-03T00:37:06.623Z,0.00
2024-01-03T00:38:06.802Z,0.00
2024-01-03T00:39:06.574Z,0.00
2024-01-03T00:40:06.601Z,0.00
2024-01-03T00:41:06.539Z,0.00
2024-01-03T00:42:06.550Z,0.00
2024-01-03T00:43:06.527Z,0.00
2024-01-03T00:44:06.445Z,0.00
2024-01-03T00:45:06.437Z,0.00
2024-01-03T00:46:06.417Z,0.00
2024-01-03T00:47:06.376Z,0.00
2024-01-03T00:48:06.622Z,0.00
2024-01-03T00:49:06.383Z,0.00
2024-01-03T00:50:06.324Z,0.00
2024-01-03T00:51:06.281Z,0.00
2024-01-03T00:52:06.262Z,0.00
2024-01-03T00:53:06.218Z,0.00
2024-01-03T00:54:06.208Z,0.00
2024-01-03T00:55:06.160Z,0.00
2024-01-03T00:56:06.141Z,0.00
2024-01-03T00:57:06.174Z,0.00
2024-01-03T00:58:06.435Z,0.00
2024-01-03T00:59:06.080Z,0.00
2024-01-03T01:00:06.079Z,0.00
2024-01-03T01:01:06.145Z,0.00
2024-01-03T01:02:05.980Z,0.00
2024-01-03T01:03:05.967Z,0.00
2024-01-03T01:04:06.002Z,0.00
2024-01-03T01:05:05.967Z,0.00
2024-01-03T01:06:05.970Z,0.00
2024-01-03T01:07:05.856Z,0.00
2024-01-03T01:08:06.173Z,0.00
2024-01-03T01:09:05.988Z,0.00
2024-01-03T01:10:05.810Z,0.00
2024-01-03T01:11:05.772Z,0.00
2024-01-03T01:12:05.757Z,0.00
2024-01-03T01:13:05.748Z,0.00
2024-01-03T01:14:05.687Z,0.00
2024-01-03T01:15:05.654Z,0.00
2024-01-03T01:16:05.633Z,0.00
2024-01-03T01:17:05.624Z,0.00
2024-01-03T01:18:05.957Z,0.00
2024-01-03T01:19:05.610Z,0.00
2024-01-03T01:20:05.543Z,0.00
2024-01-03T01:21:05.510Z,0.00
2024-01-03T01:22:05.496Z,0.00
2024-01-03T01:23:05.447Z,0.00
2024-01-03T01:24:05.509Z,0.00
2024-01-03T01:25:05.406Z,0.00
2024-01-03T01:26:05.395Z,0.00
2024-01-03T01:27:05.421Z,0.00
2024-01-03T01:28:05.399Z,0.00
2024-01-03T01:29:05.294Z,0.00
2024-01-03T01:30:05.335Z,0.00
2024-01-03T01:31:05.242Z,0.00
2024-01-03T01:32:05.227Z,0.00
2024-01-03T01:33:05.346Z,0.00
2024-01-03T01:34:05.297Z,0.00
2024-01-03T01:35:05.160Z,0.00
2024-01-03T01:36:05.118Z,0.00
2024-01-03T01:37:05.097Z,0.00
2024-01-03T01:38:05.071Z,0.00
2024-01-03T01:39:05.052Z,0.00
2024-01-03T01:40:05.054Z,0.00
2024-01-03T01:41:04.987Z,0.00
2024-01-03T01:42:05.051Z,0.00
2024-01-03T01:43:04.942Z,0.00
2024-01-03T01:44:04.916Z,0.00
2024-01-03T01:45:04.928Z,0.00
2024-01-03T01:46:04.930Z,0.00
2024-01-03T01:47:04.841Z,0.00
2024-01-03T01:48:04.972Z,0.00
2024-01-03T01:49:04.874Z,0.00
2024-01-03T01:50:04.765Z,0.00
2024-01-03T01:51:04.745Z,0.00
2024-01-03T01:52:04.719Z,0.00
2024-01-03T01:53:04.686Z,0.00
2024-01-03T01:54:04.750Z,0.00
2024-01-03T01:55:04.639Z,0.00
2024-01-03T01:56:04.627Z,0.00
2024-01-03T01:57:04.669Z,0.00
2024-01-03T01:58:04.594Z,0.00
2024-01-03T01:59:04.539Z,0.00
2024-01-03T02:00:04.563Z,0.00
2024-01-03T02:01:04.530Z,0.00
2024-01-03T02:02:04.461Z,0.00
2024-01-03T02:03:04.440Z,0.00
2024-01-03T02:04:04.524Z,0.00
2024-01-03T02:05:04.442Z,0.00
2024-01-03T02:06:04.388Z,0.00
2024-01-03T02:07:04.331Z,0.00
2024-01-03T02:08:04.309Z,0.00
2024-01-03T02:09:04.323Z,0.00
2024-01-03T02:10:04.310Z,0.00
2024-01-03T02:11:04.227Z,0.00
2024-01-03T02:12:04.267Z,0.00
2024-01-03T02:13:04.171Z,0.00
2024-01-03T02:14:04.157Z,0.00
2024-01-03T02:15:04.198Z,0.00
2024-01-03T02:16:04.103Z,0.00
2024-01-03T02:17:04.070Z,0.00
2024-01-03T02:18:04.207Z,0.00
2024-01-03T02:19:04.150Z,0.00
2024-01-03T02:20:03.999Z,0.00
2024-01-03T02:21:04.075Z,0.00
2024-01-03T02:22:03.953Z,0.00
2024-01-03T02:23:03.981Z,0.00
2024-01-03T02:24:03.915Z,0.00
2024-01-03T02:25:03.869Z,0.00
2024-01-03T02:26:10.507Z,0.00
2024-01-03T02:27:03.956Z,0.00
2024-01-03T02:28:03.801Z,0.00
2024-01-03T02:29:03.768Z,0.00
2024-01-03T02:30:03.836Z,0.00
2024-01-03T02:31:03.751Z,0.00
2024-01-03T02:32:03.703Z,0.00
2024-01-03T02:33:03.707Z,0.00
2024-01-03T02:34:03.801Z,0.00
2024-01-03T02:35:03.632Z,0.00
2024-01-03T02:36:03.637Z,0.00
2024-01-03T02:37:03.601Z,0.00
2024-01-03T02:38:03.544Z,0.00
2024-01-03T02:39:03.509Z,0.00
2024-01-03T02:40:03.516Z,0.00
2024-01-03T02:41:03.467Z,0.00
2024-01-03T02:42:03.442Z,0.00
2024-01-03T02:43:03.413Z,0.00
2024-01-03T02:44:03.391Z,0.00
2024-01-03T02:45:03.433Z,0.00
2024-01-03T02:46:03.338Z,0.00
2024-01-03T02:47:03.328Z,0.00
2024-01-03T02:48:03.489Z,0.00
2024-01-03T02:49:03.358Z,0.00
2024-01-03T02:50:03.238Z,0.00
2024-01-03T02:51:03.217Z,0.00
2024-01-03T02:52:03.186Z,0.00
2024-01-03T02:53:03.177Z,0.00
2024-01-03T02:54:03.188Z,0.00
2024-01-03T02:55:03.144Z,0.00
2024-01-03T02:56:03.082Z,0.00
2024-01-03T02:57:03.080Z,0.00
2024-01-03T02:58:03.040Z,0.00
2024-01-03T02:59:03.003Z,0.00
2024-01-03T03:00:03.092Z,0.00
2024-01-03T03:01:02.987Z,0.00
2024-01-03T03:02:02.932Z,0.00
2024-01-03T03:03:02.909Z,0.00
2024-01-03T03:04:02.909Z,0.00
2024-01-03T03:05:02.888Z,0.00
2024-01-03T03:06:03.052Z,0.00
2024-01-03T03:07:02.862Z,0.00
2024-01-03T03:08:02.781Z,0.00
2024-01-03T03:09:13.126Z,0.00
2024-01-03T03:10:02.717Z,0.00
2024-01-03T03:11:02.696Z,0.00
2024-01-03T03:12:02.725Z,0.00
2024-01-03T03:13:02.652Z,0.00
2024-01-03T03:14:02.622Z,0.00
2024-01-03T03:15:02.658Z,0.00
2024-01-03T03:16:02.603Z,0.00
2024-01-03T03:17:02.559Z,0.00
2024-01-03T03:18:02.698Z,0.00
2024-01-03T03:19:02.563Z,0.00
2024-01-03T03:20:02.475Z,0.00
2024-01-03T03:21:02.542Z,0.00
2024-01-03T03:22:02.435Z,0.00
2024-01-03T03:23:02.387Z,0.00
2024-01-03T03:24:02.658Z,0.00
2024-01-03T03:25:02.371Z,0.00
2024-01-03T03:26:02.315Z,0.00
2024-01-03T03:27:02.351Z,0.00
2024-01-03T03:28:02.274Z,0.00
2024-01-03T03:29:02.230Z,0.00
2024-01-03T03:30:02.341Z,0.00
2024-01-03T03:31:02.250Z,0.00
2024-01-03T03:32:02.160Z,0.00
2024-01-03T03:33:02.227Z,0.00
2024-01-03T03:34:02.306Z,0.00
2024-01-03T03:35:02.109Z,0.00
2024-01-03T03:36:02.189Z,0.00
2024-01-03T03:37:02.047Z,0.00
2024-01-03T03:38:02.005Z,0.00
2024-01-03T03:39:02.026Z,0.00
2024-01-03T03:40:01.989Z,0.00
2024-01-03T03:41:01.973Z,0.00
2024-01-03T03:42:02.090Z,0.00
2024-01-03T03:43:01.879Z,0.00
2024-01-03T03:44:01.863Z,0.00
2024-01-03T03:45:01.902Z,0.00
2024-01-03T03:46:01.832Z,0.00
2024-01-03T03:47:01.795Z,0.00
2024-01-03T03:48:01.896Z,0.00
2024-01-03T03:49:01.867Z,0.00
2024-01-03T03:50:01.738Z,0.00
2024-01-03T03:51:01.690Z,0.00
2024-01-03T03:52:01.648Z,0.00
2024-01-03T03:53:01.623Z,0.00
2024-01-03T03:54:01.610Z,0.00
2024-01-03T03:55:01.570Z,0.00
2024-01-03T03:56:01.555Z,0.00
2024-01-03T03:57:01.593Z,0.00
2024-01-03T03:58:01.489Z,0.00
2024-01-03T03:59:01.466Z,0.00
2024-01-03T04:00:01.472Z,0.00
2024-01-03T04:01:01.433Z,0.00
2024-01-03T04:02:01.383Z,0.00
2024-01-03T04:03:01.421Z,0.00
2024-01-03T04:04:01.448Z,0.00
2024-01-03T04:05:01.327Z,0.00
2024-01-03T04:06:01.370Z,0.00
2024-01-03T04:07:01.287Z,0.00
2024-01-03T04:08:01.226Z,0.00
2024-01-03T04:09:01.320Z,0.00
2024-01-03T04:10:01.176Z,0.00
2024-01-03T04:11:01.156Z,0.00
2024-01-03T04:12:01.178Z,0.00
2024-01-03T04:13:01.167Z,0.00
2024-01-03T04:14:01.071Z,0.00
2024-01-03T04:15:01.088Z,0.00
2024-01-03T04:16:01.028Z,0.00
2024-01-03T04:17:00.997Z,0.00
2024-01-03T04:18:01.151Z,0.00
2024-01-03T04:19:01.031Z,0.00
2024-01-03T04:20:00.929Z,0.00
2024-01-03T04:21:00.927Z,0.00
2024-01-03T04:22:00.876Z,0.00
2024-01-03T04:23:00.855Z,0.00
2024-01-03T04:24:00.874Z,0.00
2024-01-03T04:25:00.803Z,0.00
2024-01-03T04:26:00.776Z,0.00
2024-01-03T04:27:00.852Z,0.00
2024-01-03T04:28:00.711Z,0.00
2024-01-03T04:29:00.741Z,0.00
2024-01-03T04:30:00.762Z,0.00
2024-01-03T04:31:00.674Z,0.00
2024-01-03T04:32:00.613Z,0.00
2024-01-03T04:33:00.713Z,0.00
2024-01-03T04:34:00.686Z,0.00
2024-01-03T04:35:00.540Z,0.00
2024-01-03T04:36:00.621Z,0.00
2024-01-03T04:37:00.504Z,0.00
2024-01-03T04:38:00.467Z,0.00
2024-01-03T04:39:00.504Z,0.00
2024-01-03T04:40:00.512Z,0.00
2024-01-03T04:41:00.391Z,0.00
2024-01-03T04:42:00.415Z,0.00
2024-01-03T04:43:00.326Z,0.00
2024-01-03T04:44:00.300Z,0.00
2024-01-03T04:45:00.443Z,0.00
2024-01-03T04:46:00.256Z,0.00
2024-01-03T04:47:00.227Z,0.00
2024-01-03T04:48:00.440Z,0.00
2024-01-03T04:49:00.406Z,0.00
2024-01-03T04:50:00.352Z,0.00
2024-01-03T04:51:00.235Z,0.00
2024-01-03T04:52:00.116Z,0.00
2024-01-03T04:53:00.081Z,0.00
2024-01-03T04:54:00.144Z,0.00
2024-01-03T04:55:00.033Z,0.00
2024-01-03T04:56:00.010Z,0.00
2024-01-03T04:57:00.003Z,0.00
2024-01-03T04:57:59.944Z,4.00
2024-01-03T04:58:59.929Z,4.00
2024-01-03T04:59:59.984Z,4.00
2024-01-03T05:00:59.917Z,4.00
2024-01-03T05:01:59.852Z,4.00
2024-01-03T05:02:59.941Z,4.00
2024-01-03T05:03:59.855Z,4.00
2024-01-03T05:04:59.799Z,4.00
2024-01-03T05:05:59.864Z,4.00
2024-01-03T05:06:59.710Z,4.00
2024-01-03T05:07:59.679Z,4.00
2024-01-03T05:08:59.751Z,4.00
2024-01-03T05:09:59.626Z,4.00
2024-01-03T05:10:59.603Z,4.00
2024-01-03T05:11:59.634Z,4.00
2024-01-03T05:12:59.582Z,4.00
2024-01-03T05:13:59.542Z,4.00
2024-01-03T05:14:59.595Z,4.00
2024-01-03T05:15:59.476Z,4.00
2024-01-03T05:16:59.491Z,4.00
2024-01-03T05:17:59.557Z,4.00
2024-01-03T05:18:59.557Z,4.00
2024-01-03T05:19:59.362Z,4.00
2024-01-03T05:20:59.394Z,4.00
2024-01-03T05:21:59.329Z,4.00
2024-01-03T05:22:59.313Z,4.00
2024-01-03T05:23:59.373Z,4.00
2024-01-03T05:24:59.243Z,4.00
2024-01-03T05:25:59.210Z,4.00
2024-01-03T05:26:59.364Z,4.00
2024-01-03T05:27:59.162Z,4.00
2024-01-03T05:28:59.131Z,4.00
2024-01-03T05:29:59.955Z,4.00
2024-01-03T05:30:59.131Z,4.00
2024-01-03T05:31:59.075Z,4.00
2024-01-03T05:32:59.158Z,4.00
2024-01-03T05:33:59.164Z,4.00
2024-01-03T05:34:58.992Z,4.00
2024-01-03T05:35:58.991Z,4.00
2024-01-03T05:36:58.932Z,4.00
2024-01-03T05:37:58.905Z,4.00
2024-01-03T05:38:58.975Z,4.00
2024-01-03T05:39:58.853Z,4.00
2024-01-03T05:40:58.837Z,4.00
2024-01-03T05:41:58.823Z,4.00
2024-01-03T05:42:58.779Z,4.00
2024-01-03T05:43:58.751Z,4.00
2024-01-03T05:44:58.761Z,4.00
2024-01-03T05:45:58.694Z,4.00
2024-01-03T05:46:58.677Z,4.00
2024-01-03T05:47:58.774Z,4.00
2024-01-03T05:48:58.816Z,4.00
2024-01-03T05:49:58.712Z,4.00
2024-01-03T05:50:58.727Z,4.00
2024-01-03T05:51:58.568Z,4.00
2024-01-03T05:52:58.529Z,4.00
2024-01-03T05:53:58.660Z,4.00
2024-01-03T05:54:58.471Z,4.00
2024-01-03T05:55:58.444Z,4.00
2024-01-03T05:56:58.468Z,4.00
2024-01-03T05:57:58.391Z,4.00
2024-01-03T05:58:58.367Z,4.00
2024-01-03T05:59:58.486Z,4.00
2024-01-03T06:00:58.342Z,4.00
2024-01-03T06:01:58.284Z,4.00
2024-01-03T06:02:58.354Z,4.00
2024-01-03T06:03:58.362Z,4.00
2024-01-03T06:04:59.501Z,4.00
2024-01-03T06:05:58.273Z,4.00
2024-01-03T06:06:58.300Z,4.00
2024-01-03T06:07:58.126Z,4.00
2024-01-03T06:08:58.198Z,4.00
2024-01-03T06:09:58.097Z,4.00
2024-01-03T06:10:58.056Z,4.00
2024-01-03T06:11:58.085Z,4.00
2024-01-03T06:12:58.002Z,4.00
2024-01-03T06:13:57.988Z,4.00
2024-01-03T06:14:58.011Z,4.00
2024-01-03T06:15:57.949Z,4.00
2024-01-03T06:16:57.904Z,4.00
2024-01-03T06:17:57.924Z,4.00
2024-01-03T06:18:58.037Z,4.00
2024-01-03T06:19:57.899Z,4.00
2024-01-03T06:20:57.875Z,4.00
2024-01-03T06:21:57.775Z,4.00
2024-01-03T06:22:57.748Z,4.00
2024-01-03T06:23:57.723Z,4.00
2024-01-03T06:24:57.691Z,4.00
2024-01-03T06:25:57.669Z,4.00
2024-01-03T06:26:57.740Z,4.00
2024-01-03T06:27:57.644Z,4.00
2024-01-03T06:28:57.586Z,4.00
2024-01-03T06:29:57.570Z,4.00
2024-01-03T06:30:57.547Z,4.00
2024-01-03T06:31:57.508Z,4.00
2024-01-03T06:32:57.622Z,4.00
2024-01-03T06:33:57.704Z,4.00
2024-01-03T06:34:57.429Z,4.00
2024-01-03T06:35:57.438Z,4.00
2024-01-03T06:36:57.408Z,4.00
2024-01-03T06:37:57.349Z,4.00
2024-01-03T06:38:57.408Z,4.00
2024-01-03T06:39:57.317Z,4.00
2024-01-03T06:40:57.276Z,4.00
2024-01-03T06:41:57.337Z,4.00
2024-01-03T06:42:57.242Z,4.00
2024-01-03T06:43:57.207Z,4.00
2024-01-03T06:44:57.266Z,4.00
2024-01-03T06:45:57.153Z,4.00
2024-01-03T06:46:57.118Z,4.00
2024-01-03T06:47:57.213Z,4.00
2024-01-03T06:48:57.306Z,4.00
2024-01-03T06:49:57.074Z,4.00
2024-01-03T06:50:57.116Z,4.00
2024-01-03T06:51:56.986Z,4.00
2024-01-03T06:52:56.987Z,4.00
2024-01-03T06:53:56.998Z,4.00
2024-01-03T06:54:56.913Z,4.00
2024-01-03T06:56:00.349Z,4.00
2024-01-03T06:56:56.910Z,4.00
2024-01-03T06:57:56.829Z,4.00
2024-01-03T06:58:56.814Z,4.00
2024-01-03T06:59:56.804Z,4.00
2024-01-03T07:00:56.782Z,4.00
2024-01-03T07:01:56.725Z,4.00
2024-01-03T07:02:56.789Z,4.00
2024-01-03T07:03:56.872Z,4.00
2024-01-03T07:04:56.664Z,4.00
2024-01-03T07:05:56.692Z,4.00
2024-01-03T07:06:56.618Z,4.00
2024-01-03T07:07:56.573Z,4.00
2024-01-03T07:08:56.604Z,4.00
2024-01-03T07:09:56.518Z,0.00
2024-01-03T07:10:56.543Z,0.00
2024-01-03T07:11:56.463Z,0.00
2024-01-03T07:12:56.442Z,0.00
2024-01-03T07:13:56.424Z,0.00
2024-01-03T07:14:56.413Z,4.00
2024-01-03T07:15:56.360Z,4.00
2024-01-03T07:16:56.351Z,4.00
2024-01-03T07:17:56.480Z,4.00
2024-01-03T07:18:56.466Z,4.00
2024-01-03T07:19:56.300Z,4.00
2024-01-03T07:20:56.296Z,4.00
2024-01-03T07:21:56.204Z,0.00
2024-01-03T07:22:56.179Z,4.00
2024-01-03T07:23:59.451Z,4.00
2024-01-03T07:24:56.186Z,0.00
2024-01-03T07:25:56.107Z,4.00
2024-01-03T07:26:56.131Z,4.00
2024-01-03T07:27:56.062Z,4.00
2024-01-03T07:28:56.018Z,8.00
2024-01-03T07:29:56.052Z,8.00
2024-01-03T07:30:56.048Z,4.00
2024-01-03T07:31:55.941Z,8.00
2024-01-03T07:32:56.060Z,8.00
2024-01-03T07:33:56.222Z,8.00
2024-01-03T07:34:55.902Z,8.00
2024-01-03T07:35:55.916Z,8.00
2024-01-03T07:36:55.811Z,8.00
2024-01-03T07:37:55.831Z,12.00
2024-01-03T07:38:55.881Z,16.00
2024-01-03T07:39:55.744Z,16.00
2024-01-03T07:40:55.755Z,16.00
2024-01-03T07:41:55.793Z,12.00
2024-01-03T07:42:55.674Z,16.00
2024-01-03T07:43:55.634Z,16.00
2024-01-03T07:44:55.714Z,16.00
2024-01-03T07:45:55.583Z,20.00
2024-01-03T07:46:55.562Z,20.00
2024-01-03T07:47:55.615Z,20.00
2024-01-03T07:48:55.807Z,20.00
2024-01-03T07:49:55.537Z,24.00
2024-01-03T07:50:55.502Z,28.00
2024-01-03T07:51:55.431Z,28.00
2024-01-03T07:52:55.403Z,24.00
2024-01-03T07:53:55.430Z,28.00
2024-01-03T07:54:55.365Z,28.00
2024-01-03T07:55:55.342Z,24.00
2024-01-03T07:56:55.415Z,24.00
2024-01-03T07:57:55.270Z,32.00
2024-01-03T07:58:55.254Z,32.00
2024-01-03T07:59:55.250Z,36.00
2024-01-03T08:00:55.220Z,40.00
2024-01-03T08:01:55.165Z,40.00
2024-01-03T08:02:55.201Z,40.00
2024-01-03T08:03:55.143Z,40.00
2024-01-03T08:04:55.109Z,40.00
2024-01-03T08:05:55.155Z,40.00
2024-01-03T08:06:55.277Z,44.00
2024-01-03T08:07:55.046Z,44.00
2024-01-03T08:08:55.095Z,40.00
2024-01-03T08:09:54.960Z,44.00
2024-01-03T08:10:54.938Z,44.00
2024-01-03T08:11:55.069Z,48.00
2024-01-03T08:12:54.912Z,52.00
2024-01-03T08:13:54.865Z,52.00
2024-01-03T08:14:54.902Z,60.00
2024-01-03T08:15:54.808Z,64.00
2024-01-03T08:16:54.779Z,72.00
2024-01-03T08:17:54.957Z,76.00
2024-01-03T08:18:54.903Z,76.00
2024-01-03T08:19:54.910Z,84.00
2024-01-03T08:20:54.766Z,84.00
2024-01-03T08:21:54.686Z,84.00
2024-01-03T08:22:54.633Z,88.00
2024-01-03T08:23:54.628Z,96.00
2024-01-03T08:24:54.582Z,96.00
2024-01-03T08:25:54.551Z,88.00
2024-01-03T08:26:54.570Z,72.00
2024-01-03T08:27:54.515Z,60.00
2024-01-03T08:28:54.503Z,48.00
2024-01-03T08:29:54.486Z,48.00
2024-01-03T08:30:54.469Z,44.00
2024-01-03T08:31:54.404Z,48.00
2024-01-03T08:32:54.436Z,44.00
2024-01-03T08:33:54.689Z,44.00
2024-01-03T08:34:54.342Z,40.00
2024-01-03T08:35:54.327Z,36.00
2024-01-03T08:36:54.280Z,32.00
2024-01-03T08:37:54.260Z,32.00
2024-01-03T08:38:54.281Z,32.00
2024-01-03T08:39:54.194Z,32.00
2024-01-03T08:40:54.158Z,36.00
2024-01-03T08:41:54.172Z,44.00
2024-01-03T08:42:54.104Z,52.00
2024-01-03T08:43:54.086Z,64.00
2024-01-03T08:44:54.095Z,64.00
2024-01-03T08:45:54.027Z,64.00
2024-01-03T08:46:54.004Z,64.00
2024-01-03T08:47:54.579Z,60.00
2024-01-03T08:48:54.081Z,48.00
2024-01-03T08:49:54.025Z,48.00
2024-01-03T08:50:54.040Z,52.00
2024-01-03T08:51:53.914Z,56.00
2024-01-03T08:52:53.848Z,68.00
2024-01-03T08:53:53.892Z,80.00
2024-01-03T08:54:53.796Z,88.00
2024-01-03T08:55:53.767Z,96.00
2024-01-03T08:56:53.804Z,104.00
2024-01-03T08:57:53.721Z,112.00
2024-01-03T08:58:53.706Z,116.00
2024-01-03T08:59:53.734Z,112.00
2024-01-03T09:00:53.686Z,100.00
2024-01-03T09:01:53.683Z,92.00
2024-01-03T09:02:53.602Z,92.00
2024-01-03T09:03:53.645Z,100.00
2024-01-03T09:04:53.678Z,108.00
2024-01-03T09:05:53.544Z,108.00
2024-01-03T09:06:53.597Z,108.00
2024-01-03T09:07:53.462Z,112.00
2024-01-03T09:08:53.634Z,124.00
2024-01-03T09:09:53.413Z,136.00
2024-01-03T09:10:53.388Z,140.00
2024-01-03T09:11:53.419Z,144.00
2024-01-03T09:12:53.324Z,144.00
2024-01-03T09:13:53.326Z,140.00
2024-01-03T09:14:53.349Z,136.00
2024-01-03T09:15:53.257Z,132.00
2024-01-03T09:16:53.241Z,136.00
2024-01-03T09:17:53.306Z,140.00
2024-01-03T09:18:53.334Z,144.00
2024-01-03T09:19:53.207Z,132.00
2024-01-03T09:20:53.196Z,120.00
2024-01-03T09:21:53.184Z,104.00
2024-01-03T09:22:53.171Z,80.00
2024-01-03T09:23:53.132Z,80.00
2024-01-03T09:24:53.050Z,88.00
2024-01-03T09:25:52.991Z,84.00
2024-01-03T09:26:53.071Z,80.00
2024-01-03T09:27:52.944Z,72.00
2024-01-03T09:28:52.902Z,64.00
2024-01-03T09:29:52.918Z,72.00
2024-01-03T09:30:52.873Z,64.00
2024-01-03T09:31:52.830Z,68.00
2024-01-03T09:32:52.955Z,64.00
2024-01-03T09:33:53.023Z,68.00
2024-01-03T09:34:52.753Z,76.00
2024-01-03T09:35:52.744Z,68.00
2024-01-03T09:36:52.693Z,56.00
2024-01-03T09:37:52.667Z,60.00
2024-01-03T09:38:52.723Z,56.00
2024-01-03T09:39:52.626Z,64.00
2024-01-03T09:40:52.594Z,56.00
2024-01-03T09:41:52.619Z,64.00
2024-01-03T09:42:53.044Z,68.00
2024-01-03T09:43:52.521Z,64.00
2024-01-03T09:44:52.601Z,64.00
2024-01-03T09:45:52.606Z,72.00
2024-01-03T09:46:52.435Z,80.00
2024-01-03T09:47:52.491Z,68.00
2024-01-03T09:48:52.632Z,68.00
2024-01-03T09:49:52.429Z,60.00
2024-01-03T09:50:52.401Z,60.00
2024-01-03T09:51:52.935Z,48.00
2024-01-03T09:52:52.275Z,44.00
2024-01-03T09:53:52.385Z,52.00
2024-01-03T09:54:52.235Z,48.00
2024-01-03T09:55:52.206Z,52.00
2024-01-03T09:56:52.194Z,60.00
2024-01-03T09:57:52.145Z,60.00
2024-01-03T09:58:52.157Z,68.00
2024-01-03T09:59:52.134Z,64.00
2024-01-03T10:00:52.072Z,64.00
2024-01-03T10:01:52.049Z,64.00
2024-01-03T10:02:52.082Z,64.00
2024-01-03T10:03:52.028Z,68.00
2024-01-03T10:04:52.026Z,68.00
2024-01-03T10:05:51.976Z,72.00
2024-01-03T10:06:51.914Z,64.00
2024-01-03T10:07:51.891Z,68.00
2024-01-03T10:08:51.897Z,68.00
2024-01-03T10:09:51.841Z,64.00
2024-01-03T10:10:51.816Z,68.00
2024-01-03T10:11:51.828Z,56.00
2024-01-03T10:12:51.755Z,52.00
2024-01-03T10:13:51.734Z,48.00
2024-01-03T10:14:51.717Z,56.00
2024-01-03T10:15:51.677Z,64.00
2024-01-03T10:16:51.664Z,56.00
2024-01-03T10:17:51.865Z,60.00
2024-01-03T10:18:51.701Z,72.00
2024-01-03T10:19:51.705Z,76.00
2024-01-03T10:20:51.917Z,72.00
2024-01-03T10:21:51.534Z,80.00
2024-01-03T10:22:51.493Z,92.00
2024-01-03T10:23:51.483Z,112.00
2024-01-03T10:24:51.438Z,104.00
2024-01-03T10:25:51.435Z,104.00
2024-01-03T10:26:51.457Z,104.00
2024-01-03T10:27:51.364Z,104.00
2024-01-03T10:28:51.341Z,128.00
2024-01-03T10:29:52.239Z,124.00
2024-01-03T10:30:51.317Z,156.00
2024-01-03T10:31:51.722Z,192.00
2024-01-03T10:32:51.286Z,184.00
2024-01-03T10:33:59.173Z,176.00
2024-01-03T10:34:51.268Z,196.00
2024-01-03T10:35:51.263Z,200.00
2024-01-03T10:36:51.166Z,212.00
2024-01-03T10:37:51.103Z,180.00
2024-01-03T10:38:51.108Z,144.00
2024-01-03T10:39:51.053Z,140.00
2024-01-03T10:40:51.026Z,148.00
2024-01-03T10:41:51.207Z,144.00
2024-01-03T10:42:50.974Z,140.00
2024-01-03T10:43:50.949Z,144.00
2024-01-03T10:44:50.965Z,120.00
2024-01-03T10:45:50.902Z,92.00
2024-01-03T10:46:50.864Z,92.00
2024-01-03T10:47:50.974Z,108.00
2024-01-03T10:48:50.878Z,92.00
2024-01-03T10:49:50.816Z,80.00
2024-01-03T10:50:50.820Z,72.00
2024-01-03T10:51:50.746Z,72.00
2024-01-03T10:52:50.726Z,84.00
2024-01-03T10:53:50.729Z,112.00
2024-01-03T10:54:50.659Z,136.00
2024-01-03T10:55:50.653Z,140.00
2024-01-03T10:56:50.636Z,140.00
2024-01-03T10:57:50.595Z,140.00
2024-01-03T10:58:50.553Z,104.00
2024-01-03T10:59:50.565Z,108.00
2024-01-03T11:00:50.534Z,112.00
2024-01-03T11:01:50.475Z,160.00
2024-01-03T11:02:50.445Z,168.00
2024-01-03T11:03:50.459Z,144.00
2024-01-03T11:04:50.394Z,104.00
2024-01-03T11:05:50.437Z,76.00
2024-01-03T11:06:50.404Z,72.00
2024-01-03T11:07:50.333Z,88.00
2024-01-03T11:08:50.325Z,124.00
2024-01-03T11:09:50.263Z,136.00
2024-01-03T11:10:50.236Z,120.00
2024-01-03T11:11:50.237Z,124.00
2024-01-03T11:12:50.230Z,132.00
2024-01-03T11:13:50.163Z,124.00
2024-01-03T11:14:52.458Z,92.00
2024-01-03T11:15:51.025Z,92.00
2024-01-03T11:16:50.092Z,92.00
2024-01-03T11:17:50.328Z,108.00
2024-01-03T11:18:50.189Z,100.00
2024-01-03T11:19:50.048Z,100.00
2024-01-03T11:20:50.017Z,92.00
2024-01-03T11:21:49.944Z,80.00
2024-01-03T11:22:49.921Z,76.00
2024-01-03T11:23:50.123Z,80.00
2024-01-03T11:24:49.900Z,68.00
2024-01-03T11:25:49.858Z,76.00
2024-01-03T11:26:49.874Z,72.00
2024-01-03T11:27:49.795Z,76.00
2024-01-03T11:28:49.767Z,80.00
2024-01-03T11:29:49.770Z,88.00
2024-01-03T11:30:49.747Z,108.00
2024-01-03T11:31:49.683Z,124.00
2024-01-03T11:32:49.704Z,128.00
2024-01-03T11:33:49.747Z,136.00
2024-01-03T11:34:49.754Z,136.00
2024-01-03T11:35:49.609Z,148.00
2024-01-03T11:36:49.561Z,160.00
2024-01-03T11:37:49.533Z,132.00
2024-01-03T11:38:49.583Z,120.00
2024-01-03T11:39:49.484Z,100.00
2024-01-03T11:40:49.479Z,84.00
2024-01-03T11:41:49.456Z,84.00
2024-01-03T11:42:49.401Z,72.00
2024-01-03T11:43:49.373Z,60.00
2024-01-03T11:44:49.380Z,68.00
2024-01-03T11:45:49.328Z,60.00
2024-01-03T11:46:49.298Z,60.00
2024-01-03T11:47:49.595Z,64.00
2024-01-03T11:48:49.411Z,60.00
2024-01-03T11:49:49.282Z,68.00
2024-01-03T11:50:49.230Z,76.00
2024-01-03T11:51:49.173Z,96.00
2024-01-03T11:52:49.485Z,84.00
2024-01-03T11:53:49.134Z,80.00
2024-01-03T11:54:49.100Z,68.00
2024-01-03T11:55:49.069Z,72.00
2024-01-03T11:56:49.067Z,92.00
2024-01-03T11:57:49.087Z,132.00
2024-01-03T11:58:48.991Z,180.00
2024-01-03T11:59:48.976Z,200.00
2024-01-03T12:00:48.952Z,176.00
2024-01-03T12:01:48.909Z,160.00
2024-01-03T12:02:48.932Z,128.00
2024-01-03T12:03:48.858Z,108.00
2024-01-03T12:04:48.957Z,128.00
2024-01-03T12:05:48.884Z,116.00
2024-01-03T12:06:48.901Z,140.00
2024-01-03T12:07:51.862Z,132.00
2024-01-03T12:08:48.739Z,156.00
2024-01-03T12:09:48.712Z,204.00
2024-01-03T12:10:48.677Z,200.00
2024-01-03T12:11:48.672Z,176.00
2024-01-03T12:12:48.647Z,212.00
2024-01-03T12:13:51.328Z,236.00
2024-01-03T12:14:48.621Z,260.00
2024-01-03T12:15:52.256Z,320.00
2024-01-03T12:16:48.530Z,328.00
2024-01-03T12:17:48.549Z,356.00
2024-01-03T12:18:48.593Z,320.00
2024-01-03T12:19:51.343Z,296.00
2024-01-03T12:20:48.431Z,248.00
2024-01-03T12:21:48.389Z,436.00
2024-01-03T12:22:49.088Z,264.00
2024-01-03T12:23:48.376Z,324.00
2024-01-03T12:24:48.320Z,508.00
2024-01-03T12:25:51.193Z,376.00
2024-01-03T12:26:48.281Z,304.00
2024-01-03T12:27:48.252Z,288.00
2024-01-03T12:28:48.231Z,404.00
2024-01-03T12:29:48.281Z,312.00
2024-01-03T12:30:48.297Z,324.00
2024-01-03T12:31:52.391Z,356.00
2024-01-03T12:32:48.245Z,368.00
2024-01-03T12:33:48.178Z,252.00
2024-01-03T12:34:48.214Z,220.00
2024-01-03T12:35:48.097Z,240.00
2024-01-03T12:36:48.010Z,248.00
2024-01-03T12:37:50.702Z,284.00
2024-01-03T12:38:47.986Z,340.00
2024-01-03T12:39:47.927Z,388.00
2024-01-03T12:40:47.913Z,416.00
2024-01-03T12:41:47.895Z,380.00
2024-01-03T12:42:47.848Z,332.00
2024-01-03T12:43:47.834Z,284.00
2024-01-03T12:44:47.865Z,292.00
2024-01-03T12:45:47.771Z,292.00
2024-01-03T12:46:47.768Z,284.00
2024-01-03T12:47:47.929Z,272.00
2024-01-03T12:48:47.844Z,240.00
2024-01-03T12:49:47.699Z,184.00
2024-01-03T12:50:47.817Z,144.00
2024-01-03T12:51:47.696Z,140.00
2024-01-03T12:52:47.646Z,128.00
2024-01-03T12:53:47.607Z,112.00
2024-01-03T12:54:47.556Z,92.00
2024-01-03T12:55:47.544Z,96.00
2024-01-03T12:56:47.542Z,116.00
2024-01-03T12:57:47.473Z,224.00
2024-01-03T12:58:47.456Z,228.00
2024-01-03T12:59:47.442Z,168.00
2024-01-03T13:00:47.440Z,152.00
2024-01-03T13:01:47.366Z,140.00